Time;durP1;ratioP1;P1;durP2;ratioP2;P2;SDS_P1;SDS_P2;PMS_P1;PMS_P2;Temp;Humidity;BMP_temperature;BMP_pressure;BME280_temperature;BME280_humidity;BME280_pressure;Samples;Min_cycle;Max_cycle;Signal;HPM_P1;HPM_P2
2024/02/12 00:01:37;;;;;;;2.40;2.20;;;;;;;;;;5112623;28;20034;-61
2024/02/12 00:04:03;;;;;;;2.60;2.40;;;;;;;;;;5115234;28;20038;-61
2024/02/12 00:06:29;;;;;;;2.00;1.90;;;;;;;;;;5115786;28;20038;-61
2024/02/12 00:08:55;;;;;;;2.55;2.35;;;;;;;;;;5115504;28;20020;-61
2024/02/12 00:11:20;;;;;;;2.03;1.92;;;;;;;;;;5114986;28;20084;-61
2024/02/12 00:13:45;;;;;;;2.42;1.92;;;;;;;;;;5115606;28;20122;-61
2024/02/12 00:16:11;;;;;;;2.10;2.00;;;;;;;;;;5115668;28;20023;-61
2024/02/12 00:18:37;;;;;;;2.25;2.13;;;;;;;;;;5115595;28;20039;-61
2024/02/12 00:21:03;;;;;;;2.15;1.95;;;;;;;;;;5113791;28;20030;-60
2024/02/12 00:23:28;;;;;;;2.20;2.10;;;;;;;;;;5114928;28;20027;-62
2024/02/12 00:25:54;;;;;;;2.08;1.95;;;;;;;;;;5115218;28;20032;-60
2024/02/12 00:28:22;;;;;;;1.63;1.52;;;;;;;;;;5114815;28;20047;-61
2024/02/12 00:30:47;;;;;;;1.98;1.88;;;;;;;;;;5115132;27;20483;-60
2024/02/12 00:33:13;;;;;;;1.70;1.60;;;;;;;;;;5115000;28;20040;-61
2024/02/12 00:35:41;;;;;;;2.03;1.90;;;;;;;;;;5114701;28;20458;-61
2024/02/12 00:38:07;;;;;;;1.88;1.70;;;;;;;;;;5114689;27;20024;-61
2024/02/12 00:40:33;;;;;;;1.60;1.40;;;;;;;;;;5115232;28;20034;-61
2024/02/12 00:42:58;;;;;;;2.10;1.90;;;;;;;;;;5113438;28;20027;-61
2024/02/12 00:45:24;;;;;;;1.77;1.67;;;;;;;;;;5113902;28;20036;-64
2024/02/12 00:47:50;;;;;;;1.95;1.77;;;;;;;;;;5114779;28;20465;-62
2024/02/12 00:50:17;;;;;;;1.85;1.48;;;;;;;;;;5114535;28;20030;-62
2024/02/12 00:52:43;;;;;;;1.90;1.80;;;;;;;;;;5114676;28;20060;-62
2024/02/12 00:55:08;;;;;;;1.80;1.70;;;;;;;;;;5114981;28;20114;-62
2024/02/12 00:57:34;;;;;;;1.92;1.70;;;;;;;;;;5114728;28;20104;-61
2024/02/12 01:00:02;;;;;;;1.80;1.70;;;;;;;;;;5114294;28;20023;-62
2024/02/12 01:02:28;;;;;;;1.88;1.77;;;;;;;;;;5096656;28;20044;-62
2024/02/12 01:04:55;;;;;;;1.70;1.60;;;;;;;;;;5113635;28;20130;-62
2024/02/12 01:07:20;;;;;;;1.92;1.83;;;;;;;;;;5114247;28;20039;-61
2024/02/12 01:09:45;;;;;;;1.95;1.85;;;;;;;;;;5113341;28;20115;-61
2024/02/12 01:12:11;;;;;;;1.58;1.48;;;;;;;;;;5114402;28;20035;-61
2024/02/12 01:14:36;;;;;;;1.90;1.80;;;;;;;;;;5114794;28;20065;-61
2024/02/12 01:17:02;;;;;;;1.88;1.77;;;;;;;;;;5113219;28;20035;-61
2024/02/12 01:19:33;;;;;;;1.95;1.85;;;;;;;;;;5114400;28;20062;-61
2024/02/12 01:22:03;;;;;;;2.00;1.90;;;;;;;;;;5114605;28;20027;-61
2024/02/12 01:24:29;;;;;;;2.15;2.05;;;;;;;;;;5116981;28;20035;-61
2024/02/12 01:26:54;;;;;;;2.10;2.00;;;;;;;;;;5107051;28;20073;-61
2024/02/12 01:29:20;;;;;;;2.17;2.08;;;;;;;;;;5095845;28;20047;-61
2024/02/12 01:31:45;;;;;;;2.05;1.95;;;;;;;;;;5077909;28;20376;-61
2024/02/12 01:34:20;;;;;;;2.33;2.13;;;;;;;;;;5097223;28;20036;-61
2024/02/12 01:36:45;;;;;;;2.67;2.47;;;;;;;;;;5097291;28;20570;-61
2024/02/12 01:39:12;;;;;;;2.20;2.10;;;;;;;;;;5097118;28;20032;-63
2024/02/12 01:41:37;;;;;;;2.00;1.88;;;;;;;;;;5097491;28;20469;-62
2024/02/12 01:44:04;;;;;;;1.90;1.80;;;;;;;;;;5097142;28;20064;-62
2024/02/12 01:46:30;;;;;;;2.47;2.28;;;;;;;;;;5096465;28;20140;-62
2024/02/12 01:48:56;;;;;;;2.03;1.90;;;;;;;;;;5096030;28;20490;-66
2024/02/12 01:51:21;;;;;;;2.13;2.03;;;;;;;;;;5095452;28;20020;-63
2024/02/12 01:53:48;;;;;;;1.67;1.58;;;;;;;;;;5095358;28;20147;-67
2024/02/12 01:56:13;;;;;;;2.15;2.05;;;;;;;;;;5095561;28;20036;-63
2024/02/12 01:58:40;;;;;;;1.73;1.63;;;;;;;;;;5095882;28;20024;-63
2024/02/12 02:01:07;;;;;;;2.22;2.13;;;;;;;;;;5095706;28;20115;-63
2024/02/12 02:03:32;;;;;;;2.42;2.05;;;;;;;;;;5095454;28;20040;-64
2024/02/12 02:06:00;;;;;;;1.92;1.83;;;;;;;;;;5096943;28;20055;-64
2024/02/12 02:08:39;;;;;;;1.30;1.30;;;;;;;;;;5095905;28;20024;-64
2024/02/12 02:11:08;;;;;;;1.75;1.60;;;;;;;;;;5097710;28;20123;-64
2024/02/12 02:13:34;;;;;;;2.05;1.95;;;;;;;;;;5097061;28;20039;-64
2024/02/12 02:16:00;;;;;;;1.85;1.75;;;;;;;;;;5097302;28;20056;-64
2024/02/12 02:18:29;;;;;;;1.67;1.58;;;;;;;;;;5097597;28;20067;-65
2024/02/12 02:20:55;;;;;;;1.88;1.77;;;;;;;;;;5097000;28;20085;-65
2024/02/12 02:23:20;;;;;;;1.63;1.52;;;;;;;;;;5095693;28;20032;-66
2024/02/12 02:25:46;;;;;;;1.95;1.80;;;;;;;;;;5097167;28;20028;-65
2024/02/12 02:28:11;;;;;;;1.70;1.60;;;;;;;;;;5096820;28;20378;-65
2024/02/12 02:30:39;;;;;;;1.85;1.75;;;;;;;;;;5097289;28;20032;-65
2024/02/12 02:33:04;;;;;;;2.05;1.60;;;;;;;;;;5097231;28;20071;-65
2024/02/12 02:35:30;;;;;;;1.73;1.63;;;;;;;;;;5096238;28;20374;-66
2024/02/12 02:37:55;;;;;;;1.80;1.70;;;;;;;;;;5097194;28;20024;-66
2024/02/12 02:40:22;;;;;;;1.92;1.83;;;;;;;;;;5096628;28;20389;-66
2024/02/12 02:42:47;;;;;;;1.90;1.80;;;;;;;;;;5095380;28;20458;-66
2024/02/12 02:45:14;;;;;;;1.67;1.58;;;;;;;;;;5097072;28;20028;-66
2024/02/12 02:47:43;;;;;;;1.70;1.60;;;;;;;;;;5096693;28;20040;-65
2024/02/12 02:50:09;;;;;;;1.65;1.55;;;;;;;;;;5096393;28;20111;-65
2024/02/12 02:52:35;;;;;;;1.75;1.65;;;;;;;;;;5096590;28;20405;-65
2024/02/12 02:55:00;;;;;;;1.60;1.50;;;;;;;;;;5095389;28;20123;-65
2024/02/12 02:57:27;;;;;;;1.15;1.15;;;;;;;;;;5096539;28;20075;-65
2024/02/12 02:59:52;;;;;;;1.60;1.50;;;;;;;;;;5095585;28;20027;-65
2024/02/12 03:02:17;;;;;;;1.55;1.45;;;;;;;;;;5095983;28;20040;-65
2024/02/12 03:04:43;;;;;;;1.58;1.48;;;;;;;;;;5096689;28;20059;-65
2024/02/12 03:07:10;;;;;;;1.58;1.40;;;;;;;;;;5094800;28;20489;-65
2024/02/12 03:09:36;;;;;;;1.42;1.33;;;;;;;;;;5096326;28;20370;-65
2024/02/12 03:12:01;;;;;;;1.67;1.58;;;;;;;;;;5095301;28;20085;-65
2024/02/12 03:14:27;;;;;;;1.20;1.20;;;;;;;;;;5095916;28;20024;-65
2024/02/12 03:16:53;;;;;;;1.35;1.20;;;;;;;;;;5095883;28;20032;-64
2024/02/12 03:19:18;;;;;;;1.20;1.20;;;;;;;;;;5096088;28;20028;-65
2024/02/12 03:21:44;;;;;;;1.20;1.10;;;;;;;;;;5094526;28;20082;-65
2024/02/12 03:24:09;;;;;;;1.33;1.23;;;;;;;;;;5096033;28;20099;-65
2024/02/12 03:26:35;;;;;;;1.10;1.08;;;;;;;;;;5095759;28;20424;-65
2024/02/12 03:29:02;;;;;;;1.27;1.20;;;;;;;;;;5095703;28;20426;-65
2024/02/12 03:31:29;;;;;;;1.67;1.42;;;;;;;;;;5095632;28;20024;-65
2024/02/12 03:33:55;;;;;;;1.33;1.23;;;;;;;;;;5094193;28;20423;-64
2024/02/12 03:36:20;;;;;;;1.20;1.10;;;;;;;;;;5094222;28;20157;-64
2024/02/12 03:38:45;;;;;;;1.23;1.15;;;;;;;;;;5095482;28;20048;-65
2024/02/12 03:41:23;;;;;;;1.42;1.33;;;;;;;;;;5094176;28;20035;-65
2024/02/12 03:43:50;;;;;;;1.60;1.50;;;;;;;;;;5095644;28;20024;-65
2024/02/12 03:46:19;;;;;;;1.20;1.20;;;;;;;;;;5094499;28;20055;-65
2024/02/12 03:59:53;;;;;;;1.50;1.40;;;;;;;;;;5095640;28;20028;-64
2024/02/12 04:02:22;;;;;;;1.25;1.25;;;;;;;;;;5093576;28;20456;-65
2024/02/12 04:04:49;;;;;;;1.85;1.50;;;;;;;;;;5095224;28;20027;-65
2024/02/12 04:07:15;;;;;;;1.50;1.40;;;;;;;;;;5093736;28;20057;-65
2024/02/12 04:09:42;;;;;;;1.25;1.20;;;;;;;;;;5093616;28;20028;-65
2024/02/12 04:12:11;;;;;;;1.40;1.30;;;;;;;;;;5095057;28;20088;-65
2024/02/12 04:14:43;;;;;;;1.48;1.38;;;;;;;;;;5094818;28;20028;-65
2024/02/12 04:17:09;;;;;;;1.27;1.23;;;;;;;;;;5094762;28;20423;-65
2024/02/12 04:19:35;;;;;;;1.80;1.60;;;;;;;;;;5094979;28;20061;-65
2024/02/12 04:22:01;;;;;;;1.45;1.38;;;;;;;;;;5094920;28;20103;-65
2024/02/12 04:24:29;;;;;;;1.52;1.42;;;;;;;;;;5094593;28;20036;-65
2024/02/12 04:26:55;;;;;;;1.65;1.55;;;;;;;;;;5095144;28;20101;-65
2024/02/12 04:29:20;;;;;;;1.45;1.35;;;;;;;;;;5095079;28;20068;-65
2024/02/12 04:31:47;;;;;;;1.75;1.65;;;;;;;;;;5094409;28;20039;-64
2024/02/12 04:34:14;;;;;;;1.02;0.93;;;;;;;;;;5094669;28;20044;-66
2024/02/12 04:36:40;;;;;;;1.30;1.25;;;;;;;;;;5094407;28;20543;-64
2024/02/12 04:39:05;;;;;;;1.65;1.55;;;;;;;;;;5094349;28;20111;-65
2024/02/12 04:41:37;;;;;;;1.40;1.40;;;;;;;;;;5093430;28;20074;-65
2024/02/12 04:44:02;;;;;;;1.48;1.38;;;;;;;;;;5094558;28;20042;-65
2024/02/12 04:46:27;;;;;;;1.52;1.42;;;;;;;;;;5094235;28;20020;-65
2024/02/12 04:48:53;;;;;;;1.70;1.33;;;;;;;;;;5094509;28;20458;-65
2024/02/12 04:51:18;;;;;;;1.58;1.48;;;;;;;;;;5076054;28;20367;-65
2024/02/12 04:53:44;;;;;;;1.30;1.30;;;;;;;;;;5092586;28;20389;-65
2024/02/12 04:56:10;;;;;;;1.60;1.50;;;;;;;;;;5093627;28;20066;-65
2024/02/12 04:58:36;;;;;;;1.33;1.33;;;;;;;;;;5093949;28;20024;-65
2024/02/12 05:01:02;;;;;;;1.63;1.52;;;;;;;;;;5093940;28;20035;-65
2024/02/12 05:03:27;;;;;;;1.50;1.45;;;;;;;;;;5091801;28;20051;-65
2024/02/12 05:05:54;;;;;;;1.50;1.40;;;;;;;;;;5091911;28;20084;-66
2024/02/12 05:08:20;;;;;;;1.75;1.48;;;;;;;;;;5092156;28;20073;-66
2024/02/12 05:10:45;;;;;;;1.50;1.40;;;;;;;;;;5090726;28;20107;-66
2024/02/12 05:13:11;;;;;;;1.85;1.75;;;;;;;;;;5092294;28;20466;-66
2024/02/12 05:15:36;;;;;;;1.92;1.83;;;;;;;;;;5092280;28;20028;-66
2024/02/12 05:22:32;;;;;;;1.98;1.80;;;;;;;;;;5093269;28;20103;-66
2024/02/12 05:23:37;;;;;;;2.00;1.88;;;;;;;;;;5093899;28;20040;-66
2024/02/12 05:26:04;;;;;;;1.83;1.73;;;;;;;;;;5094237;28;20040;-66
2024/02/12 05:28:30;;;;;;;1.80;1.70;;;;;;;;;;5093697;28;20067;-66
2024/02/12 05:30:55;;;;;;;1.25;1.25;;;;;;;;;;5092674;28;20068;-66
2024/02/12 05:33:21;;;;;;;1.52;1.42;;;;;;;;;;5094090;28;20024;-66
2024/02/12 05:35:46;;;;;;;1.42;1.33;;;;;;;;;;5092576;28;20028;-66
2024/02/12 05:38:11;;;;;;;1.23;1.13;;;;;;;;;;5094013;28;20036;-66
2024/02/12 05:40:37;;;;;;;1.40;1.30;;;;;;;;;;5093726;28;20020;-65
2024/02/12 05:43:03;;;;;;;1.25;1.25;;;;;;;;;;5093745;28;20032;-65
2024/02/12 05:45:28;;;;;;;1.38;1.27;;;;;;;;;;5093710;28;20016;-65
2024/02/12 05:47:54;;;;;;;1.58;1.48;;;;;;;;;;5093910;28;20039;-64
2024/02/12 05:50:19;;;;;;;1.90;1.80;;;;;;;;;;5094037;28;20130;-64
2024/02/12 05:52:46;;;;;;;2.30;2.10;;;;;;;;;;5093713;28;20047;-64
2024/02/12 05:55:11;;;;;;;2.03;1.73;;;;;;;;;;5093936;28;20024;-64
2024/02/12 05:57:37;;;;;;;1.77;1.38;;;;;;;;;;5093718;28;20083;-64
2024/02/12 06:00:02;;;;;;;1.50;1.40;;;;;;;;;;5092153;28;20435;-64
2024/02/12 06:02:29;;;;;;;1.70;1.60;;;;;;;;;;5093552;28;20036;-64
2024/02/12 06:04:55;;;;;;;2.83;1.90;;;;;;;;;;5093993;28;20036;-64
2024/02/12 06:07:20;;;;;;;1.90;1.80;;;;;;;;;;5093632;28;20362;-64
2024/02/12 06:09:46;;;;;;;2.17;2.05;;;;;;;;;;5095048;28;20036;-64
2024/02/12 06:12:11;;;;;;;1.95;1.85;;;;;;;;;;5097373;28;20065;-64
2024/02/12 06:14:38;;;;;;;1.95;1.85;;;;;;;;;;5096367;28;20028;-65
2024/02/12 06:17:03;;;;;;;1.60;1.50;;;;;;;;;;5097636;28;20024;-65
2024/02/12 06:19:29;;;;;;;1.33;1.30;;;;;;;;;;5097649;28;20074;-64
2024/02/12 06:21:55;;;;;;;1.63;1.52;;;;;;;;;;5097423;28;20180;-65
2024/02/12 06:24:21;;;;;;;1.88;1.77;;;;;;;;;;5097490;28;20032;-65
2024/02/12 06:26:46;;;;;;;1.42;1.33;;;;;;;;;;5096847;28;20024;-65
2024/02/12 06:29:12;;;;;;;1.63;1.52;;;;;;;;;;5097368;28;20012;-64
2024/02/12 06:31:42;;;;;;;1.55;1.45;;;;;;;;;;5097092;28;20055;-66
2024/02/12 06:34:07;;;;;;;2.00;1.77;;;;;;;;;;5096818;28;20432;-63
2024/02/12 06:36:33;;;;;;;1.40;1.40;;;;;;;;;;5096180;28;20008;-64
2024/02/12 06:38:58;;;;;;;1.80;1.70;;;;;;;;;;5096771;28;20202;-64
2024/02/12 06:41:25;;;;;;;1.70;1.60;;;;;;;;;;5096614;28;20463;-64
2024/02/12 06:43:51;;;;;;;2.35;1.40;;;;;;;;;;5096538;28;20473;-64
2024/02/12 06:46:16;;;;;;;1.48;1.38;;;;;;;;;;5096633;28;20106;-65
2024/02/12 06:48:41;;;;;;;1.73;1.63;;;;;;;;;;5096605;28;20111;-64
2024/02/12 06:51:10;;;;;;;1.58;1.48;;;;;;;;;;5097078;28;20067;-65
2024/02/12 06:53:38;;;;;;;2.97;1.80;;;;;;;;;;5096806;28;20020;-65
2024/02/12 06:56:04;;;;;;;1.83;1.73;;;;;;;;;;5096824;28;20035;-65
2024/02/12 06:58:29;;;;;;;2.30;2.10;;;;;;;;;;5096375;28;20478;-65
2024/02/12 07:00:57;;;;;;;1.63;1.52;;;;;;;;;;5096300;28;20032;-65
2024/02/12 07:03:22;;;;;;;2.35;1.80;;;;;;;;;;5096209;28;20040;-64
2024/02/12 07:05:48;;;;;;;1.75;1.48;;;;;;;;;;5100650;28;20024;-66
2024/02/12 07:08:16;;;;;;;1.65;1.55;;;;;;;;;;5115573;28;20047;-65
2024/02/12 07:10:41;;;;;;;1.83;1.73;;;;;;;;;;5116892;28;20016;-65
2024/02/12 07:13:07;;;;;;;1.95;1.85;;;;;;;;;;5114610;28;20080;-65
2024/02/12 07:15:32;;;;;;;1.73;1.63;;;;;;;;;;5115318;28;20132;-65
2024/02/12 07:17:57;;;;;;;2.70;1.77;;;;;;;;;;5115114;28;20120;-65
2024/02/12 07:20:23;;;;;;;2.42;1.83;;;;;;;;;;5114686;28;20069;-65
2024/02/12 07:22:49;;;;;;;1.73;1.63;;;;;;;;;;5114372;28;20031;-65
2024/02/12 07:25:14;;;;;;;2.22;2.13;;;;;;;;;;5115166;28;20038;-65
2024/02/12 07:27:43;;;;;;;1.77;1.67;;;;;;;;;;5115220;28;20110;-65
2024/02/12 07:30:09;;;;;;;2.10;2.00;;;;;;;;;;5096961;28;20123;-65
2024/02/12 07:32:37;;;;;;;2.45;1.95;;;;;;;;;;5113540;28;20114;-65
2024/02/12 07:35:03;;;;;;;1.85;1.75;;;;;;;;;;5114977;28;20390;-65
2024/02/12 07:37:29;;;;;;;2.47;2.25;;;;;;;;;;5114683;28;20028;-65
2024/02/12 07:39:55;;;;;;;2.17;2.08;;;;;;;;;;5114654;28;20035;-65
2024/02/12 07:42:20;;;;;;;2.50;2.30;;;;;;;;;;5114836;28;20032;-65
2024/02/12 07:44:45;;;;;;;2.10;2.00;;;;;;;;;;5113517;28;20066;-65
2024/02/12 07:47:11;;;;;;;1.63;1.52;;;;;;;;;;5114144;28;20030;-65
2024/02/12 07:49:37;;;;;;;2.67;2.33;;;;;;;;;;5114530;28;20092;-65
2024/02/12 07:52:02;;;;;;;2.30;2.20;;;;;;;;;;5114406;28;20097;-65
2024/02/12 07:54:29;;;;;;;2.15;2.05;;;;;;;;;;5114953;28;20080;-65
2024/02/12 07:56:54;;;;;;;2.33;1.83;;;;;;;;;;5116076;28;20011;-65
2024/02/12 07:59:20;;;;;;;2.28;2.08;;;;;;;;;;5114223;28;20034;-65
2024/02/12 08:01:45;;;;;;;2.53;2.30;;;;;;;;;;5115452;28;20055;-65
2024/02/12 08:04:11;;;;;;;2.38;2.25;;;;;;;;;;5115095;28;20100;-64
2024/02/12 08:06:37;;;;;;;2.70;2.22;;;;;;;;;;5113179;28;20437;-64
2024/02/12 08:09:03;;;;;;;2.75;2.35;;;;;;;;;;5114300;28;20085;-65
2024/02/12 08:11:28;;;;;;;2.35;2.15;;;;;;;;;;5114643;28;20020;-65
2024/02/12 08:13:54;;;;;;;2.42;2.05;;;;;;;;;;5114590;28;20042;-65
2024/02/12 08:16:21;;;;;;;3.72;2.85;;;;;;;;;;5114847;28;20050;-65
2024/02/12 08:18:46;;;;;;;2.20;2.10;;;;;;;;;;5112990;28;20023;-65
2024/02/12 08:21:12;;;;;;;2.75;2.55;;;;;;;;;;5114527;28;20027;-65
2024/02/12 08:23:37;;;;;;;2.38;2.17;;;;;;;;;;5114466;28;20023;-65
2024/02/12 08:26:05;;;;;;;2.78;2.58;;;;;;;;;;5114134;28;20035;-65
2024/02/12 08:28:30;;;;;;;2.72;2.53;;;;;;;;;;5114342;28;20481;-65
2024/02/12 08:30:57;;;;;;;2.80;2.30;;;;;;;;;;5114634;28;20027;-65
2024/02/12 08:33:24;;;;;;;2.72;2.53;;;;;;;;;;5112320;28;20023;-65
2024/02/12 08:35:49;;;;;;;2.90;2.63;;;;;;;;;;5114261;28;20359;-65
2024/02/12 08:38:15;;;;;;;2.67;2.47;;;;;;;;;;5114532;28;20088;-65
2024/02/12 08:40:40;;;;;;;2.55;2.35;;;;;;;;;;5114477;28;20038;-65
2024/02/12 08:43:06;;;;;;;2.90;2.65;;;;;;;;;;5113866;28;20526;-65
2024/02/12 08:45:31;;;;;;;2.65;2.40;;;;;;;;;;5113797;28;20030;-65
2024/02/12 08:47:57;;;;;;;2.88;2.50;;;;;;;;;;5114296;28;20043;-65
2024/02/12 08:50:22;;;;;;;4.03;2.92;;;;;;;;;;5112491;28;20049;-65
2024/02/12 08:52:49;;;;;;;3.53;3.00;;;;;;;;;;5112393;28;20064;-65
2024/02/12 08:55:16;;;;;;;5.10;3.40;;;;;;;;;;5113974;28;20034;-65
2024/02/12 08:57:42;;;;;;;3.05;2.72;;;;;;;;;;5113841;28;20102;-65
2024/02/12 09:00:09;;;;;;;3.08;2.78;;;;;;;;;;5112382;28;20483;-65
2024/02/12 09:02:35;;;;;;;3.28;2.97;;;;;;;;;;5074999;28;1106797;-65
2024/02/12 09:05:01;;;;;;;3.92;3.05;;;;;;;;;;5114591;28;20065;-65
2024/02/12 09:07:27;;;;;;;4.88;3.42;;;;;;;;;;5114575;28;20397;-65
2024/02/12 09:09:53;;;;;;;5.25;3.88;;;;;;;;;;5114286;28;20035;-65
2024/02/12 09:12:19;;;;;;;3.63;3.30;;;;;;;;;;5113272;28;20020;-65
2024/02/12 09:14:45;;;;;;;4.60;3.25;;;;;;;;;;5114362;28;20024;-65
2024/02/12 09:17:14;;;;;;;3.95;3.40;;;;;;;;;;5114765;28;20068;-65
2024/02/12 09:19:39;;;;;;;4.00;3.13;;;;;;;;;;5114380;28;20016;-65
2024/02/12 09:22:05;;;;;;;3.20;2.88;;;;;;;;;;5114148;28;20024;-65
2024/02/12 09:24:32;;;;;;;8.02;3.72;;;;;;;;;;5114787;28;20459;-65
2024/02/12 09:26:57;;;;;;;3.72;2.35;;;;;;;;;;5113598;28;20020;-65
2024/02/12 09:29:22;;;;;;;3.40;2.47;;;;;;;;;;5112713;28;20441;-65
2024/02/12 09:31:48;;;;;;;4.13;2.88;;;;;;;;;;5114607;28;20403;-65
2024/02/12 09:34:15;;;;;;;3.80;2.78;;;;;;;;;;5112679;28;20028;-65
2024/02/12 09:36:42;;;;;;;4.53;3.25;;;;;;;;;;5114523;28;20023;-65
2024/02/12 09:39:09;;;;;;;4.40;2.60;;;;;;;;;;5114537;28;20035;-65
2024/02/12 09:41:37;;;;;;;5.10;2.67;;;;;;;;;;5114503;28;20063;-65
2024/02/12 09:44:06;;;;;;;4.15;3.42;;;;;;;;;;5114528;28;20019;-65
2024/02/12 09:46:35;;;;;;;3.90;3.00;;;;;;;;;;5118452;28;20031;-65
2024/02/12 09:49:01;;;;;;;4.07;3.03;;;;;;;;;;5118416;28;20084;-65
2024/02/12 09:51:27;;;;;;;5.30;2.88;;;;;;;;;;5118144;28;20450;-65
2024/02/12 09:53:55;;;;;;;2.92;2.58;;;;;;;;;;5116205;28;20020;-65
2024/02/12 09:56:22;;;;;;;5.70;3.40;;;;;;;;;;5118271;28;20035;-65
2024/02/12 09:58:47;;;;;;;3.42;2.58;;;;;;;;;;5117344;28;20027;-65
2024/02/12 10:01:13;;;;;;;4.60;3.10;;;;;;;;;;5118177;28;20369;-65
2024/02/12 10:03:39;;;;;;;3.90;2.75;;;;;;;;;;5115579;28;20044;-65
2024/02/12 10:06:05;;;;;;;2.63;2.33;;;;;;;;;;5118280;28;20032;-65
2024/02/12 10:08:33;;;;;;;3.28;2.67;;;;;;;;;;5118085;28;20032;-65
2024/02/12 10:10:59;;;;;;;2.88;2.67;;;;;;;;;;5117407;28;20035;-65
2024/02/12 10:13:26;;;;;;;3.10;2.08;;;;;;;;;;5117659;28;20031;-65
2024/02/12 10:15:55;;;;;;;3.53;2.17;;;;;;;;;;5117689;28;20028;-65
2024/02/12 10:18:21;;;;;;;2.60;2.40;;;;;;;;;;5116565;28;20046;-65
2024/02/12 10:20:48;;;;;;;3.10;2.25;;;;;;;;;;5117661;28;20449;-65
2024/02/12 10:23:15;;;;;;;2.17;2.03;;;;;;;;;;5117367;28;20094;-65
2024/02/12 10:25:42;;;;;;;2.40;2.20;;;;;;;;;;5116413;28;20483;-65
2024/02/12 10:28:28;;;;;;;4.57;2.88;;;;;;;;;;5117582;28;20031;-65
2024/02/12 10:30:53;;;;;;;2.47;2.28;;;;;;;;;;5115744;28;20050;-65
2024/02/12 10:33:20;;;;;;;3.53;2.42;;;;;;;;;;5117804;28;20114;-65
2024/02/12 10:35:50;;;;;;;2.83;2.50;;;;;;;;;;5116876;28;20377;-65
2024/02/12 10:38:15;;;;;;;2.65;2.40;;;;;;;;;;5116409;28;20383;-65
2024/02/12 10:41:03;;;;;;;2.92;2.58;;;;;;;;;;5117015;28;20035;-65
2024/02/12 10:43:30;;;;;;;6.03;3.30;;;;;;;;;;5116332;28;20054;-65
2024/02/12 10:45:58;;;;;;;3.75;3.13;;;;;;;;;;5117560;27;20042;-65
2024/02/12 10:48:23;;;;;;;3.65;2.80;;;;;;;;;;5117507;28;20031;-65
2024/02/12 10:50:49;;;;;;;4.45;2.72;;;;;;;;;;5117145;28;20030;-66
2024/02/12 10:53:15;;;;;;;2.85;2.60;;;;;;;;;;5117243;28;20036;-65
2024/02/12 10:55:42;;;;;;;4.22;2.72;;;;;;;;;;5117011;28;20019;-65
2024/02/12 10:58:07;;;;;;;4.63;2.30;;;;;;;;;;5115517;28;20161;-62
2024/02/12 11:00:38;;;;;;;3.00;2.63;;;;;;;;;;5116924;28;20032;-62
2024/02/12 11:03:05;;;;;;;2.80;2.30;;;;;;;;;;5116594;28;20040;-65
2024/02/12 11:05:35;;;;;;;3.53;1.95;;;;;;;;;;5117990;28;20046;-65
2024/02/12 11:08:03;;;;;;;2.50;2.30;;;;;;;;;;5116548;28;20035;-62
2024/02/12 11:10:31;;;;;;;3.17;2.75;;;;;;;;;;5117607;28;20019;-62
2024/02/12 11:13:00;;;;;;;3.67;2.80;;;;;;;;;;5111905;22;20048;-65
2024/02/12 11:15:27;;;;;;;3.45;2.70;;;;;;;;;;5095947;28;20101;-65
2024/02/12 11:17:53;;;;;;;3.10;2.80;;;;;;;;;;5095880;28;20024;-65
2024/02/12 11:20:20;;;;;;;4.63;2.67;;;;;;;;;;5095840;28;20466;-65
2024/02/12 11:22:47;;;;;;;3.08;2.78;;;;;;;;;;5095769;28;20024;-65
2024/02/12 11:25:17;;;;;;;3.58;2.85;;;;;;;;;;5095921;28;20067;-65
2024/02/12 11:27:48;;;;;;;3.88;2.65;;;;;;;;;;5095700;28;20028;-65
2024/02/12 11:30:16;;;;;;;3.45;3.10;;;;;;;;;;5095633;28;20085;-65
2024/02/12 11:32:42;;;;;;;5.10;3.47;;;;;;;;;;5095600;28;20055;-65
2024/02/12 11:35:26;;;;;;;3.63;3.28;;;;;;;;;;5095572;28;20032;-65
2024/02/12 11:37:59;;;;;;;5.18;3.15;;;;;;;;;;5096098;28;20055;-65
2024/02/12 11:40:24;;;;;;;5.13;3.45;;;;;;;;;;5095416;28;20071;-65
2024/02/12 11:42:50;;;;;;;4.10;3.70;;;;;;;;;;5095440;28;20047;-65
2024/02/12 11:45:22;;;;;;;5.13;3.53;;;;;;;;;;5095644;28;20040;-65
2024/02/12 11:47:48;;;;;;;4.07;3.20;;;;;;;;;;5095620;28;20459;-65
2024/02/12 11:50:17;;;;;;;4.53;3.28;;;;;;;;;;5095278;28;20032;-65
2024/02/12 11:52:43;;;;;;;6.72;3.53;;;;;;;;;;5095450;28;20077;-65
2024/02/12 11:55:10;;;;;;;5.25;3.95;;;;;;;;;;5095166;28;20408;-65
2024/02/12 11:57:35;;;;;;;5.65;3.70;;;;;;;;;;5077021;28;20012;-65
2024/02/12 12:00:05;;;;;;;5.80;3.70;;;;;;;;;;5095329;28;20153;-65
2024/02/12 12:02:37;;;;;;;4.82;3.38;;;;;;;;;;5095319;28;20028;-65
2024/02/12 12:05:02;;;;;;;5.57;4.68;;;;;;;;;;5095273;28;20069;-65
2024/02/12 12:07:28;;;;;;;5.32;4.45;;;;;;;;;;5094236;28;20038;-65
2024/02/12 12:10:10;;;;;;;3.10;2.85;;;;;;;;;;5094895;28;20458;-65
2024/02/12 12:12:35;;;;;;;4.57;3.08;;;;;;;;;;5094826;28;20402;-65
2024/02/12 12:15:03;;;;;;;4.63;2.95;;;;;;;;;;5094818;28;20028;-65
2024/02/12 12:17:29;;;;;;;6.22;3.97;;;;;;;;;;5095288;28;20031;-65
2024/02/12 12:19:57;;;;;;;4.65;3.60;;;;;;;;;;5095004;28;20032;-65
2024/02/12 12:22:22;;;;;;;4.70;3.65;;;;;;;;;;5077335;28;20101;-65
2024/02/12 12:24:48;;;;;;;6.47;4.78;;;;;;;;;;5095171;28;20455;-65
2024/02/12 12:27:23;;;;;;;5.40;3.50;;;;;;;;;;5094621;28;20492;-65
2024/02/12 12:29:50;;;;;;;3.45;3.08;;;;;;;;;;5094526;28;20032;-65
2024/02/12 12:32:15;;;;;;;4.47;3.40;;;;;;;;;;5094682;28;20032;-65
2024/02/12 12:34:41;;;;;;;3.65;3.13;;;;;;;;;;5094447;28;20420;-65
2024/02/12 12:37:07;;;;;;;3.35;3.08;;;;;;;;;;5094431;28;20430;-65
2024/02/12 12:39:33;;;;;;;4.18;3.40;;;;;;;;;;5094654;28;20122;-65
2024/02/12 12:41:58;;;;;;;4.22;3.33;;;;;;;;;;5094576;28;20105;-65
2024/02/12 12:44:24;;;;;;;6.35;3.33;;;;;;;;;;5094305;28;20373;-65
2024/02/12 12:46:49;;;;;;;6.65;3.83;;;;;;;;;;5094552;28;20074;-65
2024/02/12 12:49:17;;;;;;;4.65;3.42;;;;;;;;;;5094224;28;20103;-65
2024/02/12 12:51:42;;;;;;;6.53;3.90;;;;;;;;;;5094452;28;20039;-65
2024/02/12 12:54:08;;;;;;;4.30;3.63;;;;;;;;;;5094599;28;20016;-65
2024/02/12 12:56:33;;;;;;;6.80;4.20;;;;;;;;;;5094412;28;20082;-65
2024/02/12 12:58:59;;;;;;;5.55;4.38;;;;;;;;;;5094053;28;20058;-65
2024/02/12 13:01:25;;;;;;;4.80;3.60;;;;;;;;;;5094316;28;20112;-65
2024/02/12 13:03:50;;;;;;;4.00;3.50;;;;;;;;;;5094570;28;20055;-65
2024/02/12 13:06:17;;;;;;;5.55;3.97;;;;;;;;;;5093996;28;20481;-65
2024/02/12 13:08:45;;;;;;;4.88;3.78;;;;;;;;;;5094509;28;20020;-65
2024/02/12 13:11:12;;;;;;;8.27;5.50;;;;;;;;;;5075701;28;20047;-65
2024/02/12 13:13:38;;;;;;;8.25;4.55;;;;;;;;;;5093950;28;20055;-65
2024/02/12 13:16:05;;;;;;;6.78;4.40;;;;;;;;;;5094126;28;20042;-65
2024/02/12 13:18:30;;;;;;;8.38;5.40;;;;;;;;;;5075658;28;20020;-63
2024/02/12 13:20:57;;;;;;;6.25;4.45;;;;;;;;;;5093752;28;20024;-64
2024/02/12 13:23:22;;;;;;;5.70;3.90;;;;;;;;;;5094328;28;20035;-64
2024/02/12 13:25:48;;;;;;;4.38;3.75;;;;;;;;;;5093838;28;20039;-64
2024/02/12 13:28:15;;;;;;;6.43;4.72;;;;;;;;;;5093699;28;20482;-64
2024/02/12 13:30:43;;;;;;;3.95;3.17;;;;;;;;;;5094236;28;20501;-64
2024/02/12 13:33:09;;;;;;;4.68;3.70;;;;;;;;;;5093573;28;20458;-64
2024/02/12 13:35:38;;;;;;;3.60;2.88;;;;;;;;;;5093645;28;20020;-64
2024/02/12 13:38:03;;;;;;;2.97;2.53;;;;;;;;;;5075590;28;20115;-64
2024/02/12 13:40:30;;;;;;;2.65;2.42;;;;;;;;;;5093619;28;20182;-64
2024/02/12 13:42:55;;;;;;;2.70;2.45;;;;;;;;;;5093615;28;20023;-64
2024/02/12 13:45:21;;;;;;;3.03;2.40;;;;;;;;;;5075495;28;20032;-64
2024/02/12 13:47:46;;;;;;;2.25;2.03;;;;;;;;;;5093513;28;20032;-64
2024/02/12 13:50:12;;;;;;;2.42;2.00;;;;;;;;;;5075725;28;20071;-64
2024/02/12 13:52:38;;;;;;;1.80;1.70;;;;;;;;;;5094271;28;20427;-65
2024/02/12 13:55:10;;;;;;;2.50;2.00;;;;;;;;;;5093770;28;20456;-64
2024/02/12 13:57:38;;;;;;;1.98;1.73;;;;;;;;;;5093619;28;20039;-64
2024/02/12 14:00:06;;;;;;;2.38;2.05;;;;;;;;;;5093395;28;20039;-64
2024/02/12 14:02:38;;;;;;;1.80;1.70;;;;;;;;;;5093501;28;20486;-64
2024/02/12 14:05:03;;;;;;;2.03;1.83;;;;;;;;;;5075369;28;20053;-64
2024/02/12 14:07:30;;;;;;;4.43;2.35;;;;;;;;;;5075331;28;20039;-64
2024/02/12 14:09:57;;;;;;;11.60;4.97;;;;;;;;;;5093265;28;20050;-64
2024/02/12 14:12:23;;;;;;;10.10;5.03;;;;;;;;;;5093095;28;20055;-64
2024/02/12 14:14:48;;;;;;;9.98;4.28;;;;;;;;;;5093196;28;20024;-64
2024/02/12 14:17:13;;;;;;;5.70;3.42;;;;;;;;;;5093332;28;20091;-65
2024/02/12 14:19:43;;;;;;;5.57;3.38;;;;;;;;;;5093231;28;20024;-65
2024/02/12 14:22:09;;;;;;;9.13;4.35;;;;;;;;;;5093291;28;20061;-65
2024/02/12 14:24:35;;;;;;;14.35;6.50;;;;;;;;;;5093474;28;20020;-65
2024/02/12 14:27:00;;;;;;;4.18;2.72;;;;;;;;;;5093173;28;20107;-65
2024/02/12 14:29:25;;;;;;;8.70;4.93;;;;;;;;;;5093142;28;20023;-65
2024/02/12 14:31:51;;;;;;;13.48;6.63;;;;;;;;;;5096423;28;20028;-65
2024/02/12 14:34:16;;;;;;;15.40;7.82;;;;;;;;;;5096653;28;20423;-65
2024/02/12 14:36:41;;;;;;;14.95;7.03;;;;;;;;;;5096752;28;20032;-65
2024/02/12 14:39:07;;;;;;;4.90;3.40;;;;;;;;;;5096675;28;20026;-65
2024/02/12 14:41:33;;;;;;;3.67;2.70;;;;;;;;;;5078886;28;20109;-65
2024/02/12 14:44:00;;;;;;;6.57;3.40;;;;;;;;;;5096863;28;20031;-65
2024/02/12 14:46:25;;;;;;;3.80;2.40;;;;;;;;;;5096839;28;20054;-65
2024/02/12 14:48:51;;;;;;;8.15;3.38;;;;;;;;;;5096772;28;20040;-65
2024/02/12 14:51:17;;;;;;;8.75;4.07;;;;;;;;;;5096466;28;20047;-65
2024/02/12 14:53:42;;;;;;;10.82;4.88;;;;;;;;;;5078173;28;20111;-65